createdAt,value
2022-11-29T00:03:42.097Z,100770.19
2022-11-29T00:08:45.043Z,100770.25
2022-11-29T00:13:46.781Z,100770.41
2022-11-29T00:18:49.612Z,100792.44
2022-11-29T00:23:51.632Z,100784.59
2022-11-29T00:28:53.790Z,100787.88
2022-11-29T00:33:57.062Z,100790.69
2022-11-29T00:38:59.602Z,100798.66
2022-11-29T00:44:01.525Z,100799.66
2022-11-29T00:49:04.001Z,100795.09
2022-11-29T00:54:06.180Z,100796.78
2022-11-29T00:59:08.069Z,100792.34
2022-11-29T01:04:10.076Z,100790.69
2022-11-29T01:09:12.192Z,100795.84
2022-11-29T01:14:14.725Z,100794.91
2022-11-29T01:19:16.494Z,100796.06
2022-11-29T01:24:18.410Z,100805.81
2022-11-29T01:29:20.514Z,100812.94
2022-11-29T01:34:22.581Z,100810.06
2022-11-29T01:39:24.474Z,100814.44
2022-11-29T01:44:26.463Z,100821.69
2022-11-29T01:49:36.414Z,100827.84
2022-11-29T01:54:44.127Z,100832.38
2022-11-29T01:59:52.639Z,100833.09
2022-11-29T02:04:54.846Z,100831.31
2022-11-29T02:09:56.647Z,100835.81
2022-11-29T02:14:58.589Z,100834.81
2022-11-29T02:20:15.660Z,100832.09
2022-11-29T02:25:42.395Z,100836.59
2022-11-29T02:31:19.575Z,100829.66
2022-11-29T02:36:39.281Z,100839.41
2022-11-29T02:42:28.044Z,100842.13
2022-11-29T02:47:35.564Z,100849.09
2022-11-29T02:53:20.813Z,100848.22
2022-11-29T02:58:42.235Z,100861.34
2022-11-29T03:03:53.287Z,100860.56
2022-11-29T03:09:16.751Z,100863.22
2022-11-29T03:14:34.940Z,100868.63
2022-11-29T03:20:07.580Z,100870.16
2022-11-29T03:25:16.741Z,100867.66
2022-11-29T03:30:19.439Z,100873.13
2022-11-29T03:35:27.629Z,100880.16
2022-11-29T03:41:01.609Z,100881.00
2022-11-29T03:46:11.665Z,100881.78
2022-11-29T03:51:22.282Z,100887.03
2022-11-29T03:56:39.955Z,100894.22
2022-11-29T04:02:26.973Z,100898.72
2022-11-29T04:07:37.923Z,100899.56
2022-11-29T04:13:04.598Z,100903.25
2022-11-29T04:18:26.306Z,100908.44
2022-11-29T04:23:28.005Z,100917.31
2022-11-29T04:28:45.009Z,100929.56
2022-11-29T04:34:31.485Z,100935.09
2022-11-29T04:40:02.378Z,100939.53
2022-11-29T04:45:35.534Z,100943.91
2022-11-29T04:51:06.697Z,100949.03
2022-11-29T04:56:18.025Z,100949.03
2022-11-29T05:01:58.010Z,100951.88
2022-11-29T05:07:08.755Z,100962.38
2022-11-29T05:12:22.488Z,100971.19
2022-11-29T05:17:50.722Z,100970.38
2022-11-29T05:23:18.122Z,100972.03
2022-11-29T05:28:38.107Z,100985.50
2022-11-29T05:33:52.857Z,100991.50
2022-11-29T05:39:19.776Z,100993.28
2022-11-29T05:44:37.701Z,101008.34
2022-11-29T05:49:45.364Z,101011.16
2022-11-29T05:55:13.867Z,101015.31
2022-11-29T06:00:19.010Z,101017.25
2022-11-29T06:05:27.317Z,101011.16
2022-11-29T06:10:34.056Z,101034.84
2022-11-29T06:16:17.602Z,101029.88
2022-11-29T06:21:41.045Z,101046.44
2022-11-29T06:27:22.545Z,101049.22
2022-11-29T06:32:54.950Z,101054.59
2022-11-29T06:38:03.545Z,101058.63
2022-11-29T06:43:05.738Z,101059.72
2022-11-29T06:48:12.668Z,101066.59
2022-11-29T06:53:39.646Z,101069.69
2022-11-29T06:59:11.993Z,101065.94
2022-11-29T07:04:14.261Z,101081.88
2022-11-29T07:09:18.898Z,101082.00
2022-11-29T07:14:21.126Z,101089.88
2022-11-29T07:19:25.905Z,101101.38
2022-11-29T07:24:40.373Z,101113.78
2022-11-29T07:30:00.418Z,101113.06
2022-11-29T07:35:15.576Z,101122.97
2022-11-29T07:40:34.430Z,101129.53
2022-11-29T07:45:40.328Z,101132.19
2022-11-29T07:50:42.626Z,101138.56
2022-11-29T07:55:45.058Z,101137.41
2022-11-29T08:00:47.409Z,101139.34
2022-11-29T08:05:49.242Z,101154.63
2022-11-29T08:10:51.175Z,101149.09
2022-11-29T08:15:53.183Z,101155.69
2022-11-29T08:20:55.252Z,101167.34
2022-11-29T08:26:01.633Z,101167.56
2022-11-29T08:31:05.635Z,101165.09
2022-11-29T08:36:09.113Z,101169.59
2022-11-29T08:41:14.168Z,101171.44
2022-11-29T08:46:18.786Z,101182.84
2022-11-29T08:51:21.114Z,101189.00
2022-11-29T08:57:10.127Z,101189.25
2022-11-29T09:01:45.000Z,101191.00
2022-11-29T09:06:49.765Z,101188.59
2022-11-29T09:11:51.822Z,101186.66
2022-11-29T09:16:53.820Z,101191.22
2022-11-29T09:21:55.666Z,101205.38
2022-11-29T09:26:58.189Z,101205.47
2022-11-29T09:32:00.220Z,101210.03
2022-11-29T09:37:02.288Z,101207.16
2022-11-29T09:42:38.236Z,101225.72
2022-11-29T09:48:21.261Z,101225.78
2022-11-29T09:53:43.684Z,101231.97
2022-11-29T09:58:57.811Z,101245.38
2022-11-29T10:04:14.371Z,101243.50
2022-11-29T10:09:33.763Z,101238.78
2022-11-29T10:14:59.504Z,101239.34
2022-11-29T10:20:15.700Z,101239.13
2022-11-29T10:25:25.524Z,101228.47
2022-11-29T10:30:27.404Z,101234.56
2022-11-29T10:35:29.753Z,101234.56
2022-11-29T10:40:35.143Z,101228.38
2022-11-29T10:45:50.840Z,101223.16
2022-11-29T10:50:53.394Z,101224.63
2022-11-29T10:56:01.309Z,101232.59
2022-11-29T11:01:09.260Z,101234.50
2022-11-29T11:06:17.549Z,101236.41
2022-11-29T11:11:31.482Z,101236.19
2022-11-29T11:16:37.312Z,101238.75
2022-11-29T11:21:39.738Z,101243.22
2022-11-29T11:26:44.043Z,101243.16
2022-11-29T11:31:59.102Z,101249.31
2022-11-29T11:37:16.166Z,101250.38
2022-11-29T11:42:38.301Z,101257.41
2022-11-29T11:47:52.960Z,101262.78
2022-11-29T11:53:29.089Z,101278.75
2022-11-29T11:58:36.475Z,101268.94
2022-11-29T12:03:56.943Z,101270.75
2022-11-29T12:09:16.794Z,101281.22
2022-11-29T12:14:27.350Z,101291.97
2022-11-29T12:19:39.706Z,101298.25
2022-11-29T12:24:51.069Z,101289.38
2022-11-29T12:29:52.867Z,101302.59
2022-11-29T12:35:24.442Z,101307.09
2022-11-29T12:40:54.398Z,101314.19
2022-11-29T12:46:11.487Z,101309.69
2022-11-29T12:51:29.590Z,101310.50
2022-11-29T12:56:41.733Z,101317.66
2022-11-29T13:02:20.544Z,101321.16
2022-11-29T13:07:56.282Z,101321.16
2022-11-29T13:13:12.167Z,101321.16
2022-11-29T13:18:37.901Z,101324.72
2022-11-29T13:24:12.976Z,101323.81
2022-11-29T13:29:18.297Z,101330.03
2022-11-29T13:34:30.835Z,101331.72
2022-11-29T13:40:04.773Z,101338.81
2022-11-29T13:45:32.709Z,101336.22
2022-11-29T13:50:45.145Z,101333.44
2022-11-29T13:56:01.957Z,101333.44
2022-11-29T14:01:09.904Z,101338.75
2022-11-29T14:06:21.815Z,101343.22
2022-11-29T14:11:57.390Z,101349.59
2022-11-29T14:17:03.269Z,101337.09
2022-11-29T14:22:18.603Z,101347.66
2022-11-29T14:27:20.300Z,101351.22
2022-11-29T14:32:27.581Z,101353.91
2022-11-29T14:37:49.656Z,101363.69
2022-11-29T14:42:53.139Z,101360.84
2022-11-29T14:47:56.369Z,101360.00
2022-11-29T14:52:59.129Z,101365.31
2022-11-29T14:58:25.563Z,101360.16
2022-11-29T15:03:33.389Z,101362.78
2022-11-29T15:09:02.888Z,101368.97
2022-11-29T15:14:06.823Z,101369.69
2022-11-29T15:19:20.754Z,101386.72
2022-11-29T15:24:28.261Z,101391.88
2022-11-29T15:29:31.888Z,101395.34
2022-11-29T15:34:50.722Z,101394.50
2022-11-29T15:40:14.720Z,101391.63
2022-11-29T15:45:31.789Z,101389.81
2022-11-29T15:50:34.670Z,101395.09
2022-11-29T15:55:37.341Z,101385.28
2022-11-29T16:00:39.737Z,101395.03
2022-11-29T16:05:41.694Z,101396.84
2022-11-29T16:10:50.799Z,101400.44
2022-11-29T16:16:22.949Z,101403.22
2022-11-29T16:21:31.003Z,101405.94
2022-11-29T16:26:37.622Z,101406.88
2022-11-29T16:31:40.160Z,101411.81
2022-11-29T16:36:42.444Z,101410.09
2022-11-29T16:42:24.652Z,101421.19
2022-11-29T16:47:45.112Z,101419.13
2022-11-29T16:52:50.869Z,101432.63
2022-11-29T16:57:57.118Z,101437.13
2022-11-29T17:02:59.872Z,101446.50
2022-11-29T17:08:01.952Z,101442.63
2022-11-29T17:13:06.801Z,101435.34
2022-11-29T17:18:08.582Z,101441.53
2022-11-29T17:23:10.612Z,101450.56
2022-11-29T17:28:12.511Z,101454.28
2022-11-29T17:33:14.393Z,101452.44
2022-11-29T17:38:16.427Z,101450.88
2022-11-29T17:43:18.658Z,101456.22
2022-11-29T17:48:20.723Z,101457.59
2022-11-29T17:53:22.993Z,101470.06
2022-11-29T17:58:24.858Z,101469.28
2022-11-29T18:03:27.793Z,101479.03
2022-11-29T18:08:29.935Z,101485.88
2022-11-29T18:13:32.357Z,101481.69
2022-11-29T18:18:35.714Z,101478.94
2022-11-29T18:23:40.705Z,101473.53
2022-11-29T18:28:44.258Z,101478.72
2022-11-29T18:33:48.381Z,101477.88
2022-11-29T18:38:56.825Z,101474.16
2022-11-29T18:44:01.478Z,101480.47
2022-11-29T18:49:06.005Z,101483.16
2022-11-29T18:54:08.067Z,101490.34
2022-11-29T18:59:17.340Z,101491.28
2022-11-29T19:04:21.042Z,101497.50
2022-11-29T19:09:23.526Z,101492.25
2022-11-29T19:14:25.369Z,101491.97
2022-11-29T19:19:27.245Z,101494.09
2022-11-29T19:24:29.413Z,101480.66
2022-11-29T19:29:35.197Z,101492.09
2022-11-29T19:34:41.367Z,101492.25
2022-11-29T19:39:43.444Z,101491.38
2022-11-29T19:45:15.212Z,101507.19
2022-11-29T19:50:07.777Z,101515.25
2022-11-29T19:55:10.258Z,101510.78
2022-11-29T20:00:13.034Z,101514.38
2022-11-29T20:05:14.813Z,101517.13
2022-11-29T20:10:16.900Z,101535.53
2022-11-29T20:15:18.587Z,101530.38
2022-11-29T20:20:21.549Z,101525.13
2022-11-29T20:25:23.364Z,101532.16
2022-11-29T20:30:26.544Z,101523.13
2022-11-29T20:35:28.727Z,101532.09
2022-11-29T20:40:49.609Z,101534.75
2022-11-29T20:45:51.609Z,101534.00
2022-11-29T20:50:58.613Z,101543.81
2022-11-29T20:56:00.827Z,101540.03
2022-11-29T21:01:03.749Z,101545.63
2022-11-29T21:06:06.726Z,101554.28
2022-11-29T21:11:12.181Z,101549.91
2022-11-29T21:16:14.657Z,101552.59
2022-11-29T21:21:25.052Z,101549.25
2022-11-29T21:26:48.415Z,101556.25
2022-11-29T21:31:52.914Z,101555.31
2022-11-29T21:36:59.850Z,101555.41
2022-11-29T21:42:02.454Z,101561.56
2022-11-29T21:47:04.916Z,101569.47
2022-11-29T21:52:07.475Z,101568.47
2022-11-29T21:57:09.535Z,101567.50
2022-11-29T22:02:11.625Z,101580.06
2022-11-29T22:07:13.684Z,101579.09
2022-11-29T22:12:33.220Z,101579.28
2022-11-29T22:17:36.396Z,101581.13
2022-11-29T22:22:38.254Z,101577.66
2022-11-29T22:27:40.168Z,101575.94
2022-11-29T22:32:42.179Z,101579.91
2022-11-29T22:37:44.026Z,101568.28
2022-11-29T22:42:45.931Z,101570.69
2022-11-29T22:47:48.062Z,101571.53
2022-11-29T22:52:49.887Z,101574.03
2022-11-29T22:57:53.667Z,101573.13
2022-11-29T23:02:58.257Z,101570.59
2022-11-29T23:08:00.290Z,101582.81
2022-11-29T23:13:03.154Z,101573.09
2022-11-29T23:18:05.248Z,101580.31
2022-11-29T23:23:07.198Z,101587.13
2022-11-29T23:28:09.239Z,101581.91
2022-11-29T23:33:11.386Z,101586.34
2022-11-29T23:38:13.453Z,101581.91
2022-11-29T23:43:15.498Z,101582.72
2022-11-29T23:48:17.800Z,101578.25
2022-11-29T23:53:20.042Z,101578.25
2022-11-29T23:58:22.268Z,101578.16
